Time;durP1;ratioP1;P1;durP2;ratioP2;P2;SDS_P1;SDS_P2;PMS_P1;PMS_P2;Temp;Humidity;BMP_temperature;BMP_pressure;BME280_temperature;BME280_humidity;BME280_pressure;Samples;Min_cycle;Max_cycle;Signal;HPM_P1;HPM_P2
2023/08/07 00:00:12;;;;;;;;;1.00;1.00;;;;;19.55;67.99;101237.78;6217615;22;44728;-80
2023/08/07 00:02:37;;;;;;;;;4.25;2.50;;;;;19.52;68.52;101236.91;6217819;22;45603;-79
2023/08/07 00:05:03;;;;;;;;;2.00;2.00;;;;;19.49;68.13;101231.56;6190371;22;44846;-80
2023/08/07 00:07:29;;;;;;;;;2.00;1.00;;;;;19.48;68.16;101240.56;6218052;22;45286;-79
2023/08/07 00:09:55;;;;;;;;;1.50;1.50;;;;;19.52;68.07;101242.31;6221167;22;45447;-81
2023/08/07 00:12:20;;;;;;;;;1.75;1.75;;;;;19.36;67.92;101247.91;6234531;22;45589;-81
2023/08/07 00:14:50;;;;;;;;;1.75;1.75;;;;;19.45;68.15;101236.13;6233794;22;44856;-84
2023/08/07 00:17:16;;;;;;;;;3.00;1.00;;;;;19.26;68.47;101246.25;6225425;22;45207;-84
2023/08/07 00:19:43;;;;;;;;;1.00;1.00;;;;;19.32;68.60;101240.78;6223705;22;44836;-84
2023/08/07 00:22:08;;;;;;;;;1.00;1.00;;;;;19.12;68.58;101241.06;6223408;22;46515;-79
2023/08/07 00:24:34;;;;;;;;;1.75;1.75;;;;;19.11;68.44;101241.09;6216558;22;44936;-79
2023/08/07 00:27:02;;;;;;;;;2.75;1.50;;;;;19.05;69.07;101250.16;6218784;22;44874;-80
2023/08/07 00:29:32;;;;;;;;;1.00;1.00;;;;;19.17;69.17;101252.69;6224159;22;44796;-84
2023/08/07 00:31:57;;;;;;;;;2.00;2.00;;;;;18.97;69.42;101250.25;6223996;22;47320;-84
2023/08/07 00:34:23;;;;;;;;;2.25;1.75;;;;;18.91;69.45;101244.03;6223055;22;44816;-82
2023/08/07 00:36:54;;;;;;;;;1.75;1.75;;;;;18.96;69.44;101245.75;6223521;22;44829;-83
2023/08/07 00:39:19;;;;;;;;;2.00;1.00;;;;;18.78;69.74;101237.84;6224378;22;44845;-82
2023/08/07 00:41:44;;;;;;;;;3.67;3.67;;;;;18.75;69.87;101237.91;6222511;22;45111;-84
2023/08/07 00:44:10;;;;;;;;;2.00;1.00;;;;;18.75;70.29;101238.78;6221820;22;44958;-84
2023/08/07 00:46:36;;;;;;;;;2.00;2.00;;;;;18.71;70.40;101230.78;6224594;22;44810;-84
2023/08/07 00:49:02;;;;;;;;;1.50;1.50;;;;;18.70;70.04;101239.75;6223966;22;44779;-83
2023/08/07 00:51:29;;;;;;;;;1.33;1.33;;;;;18.75;70.77;101237.91;6221552;22;45230;-80
2023/08/07 00:53:56;;;;;;;;;2.25;1.25;;;;;18.76;70.99;101234.28;6220185;22;44740;-80
2023/08/07 00:56:23;;;;;;;;;4.00;4.00;;;;;18.64;71.15;101234.44;6219694;22;45281;-81
2023/08/07 00:58:50;;;;;;;;;2.00;2.00;;;;;18.67;71.00;101240.69;6217388;22;44979;-81
2023/08/07 01:01:15;;;;;;;;;1.00;1.00;;;;;18.61;71.41;101237.19;6222572;22;47219;-84
2023/08/07 01:03:41;;;;;;;;;2.00;1.67;;;;;18.54;71.45;101245.34;6219756;22;44762;-81
2023/08/07 01:06:06;;;;;;;;;3.00;3.00;;;;;18.50;72.03;101234.59;6214879;22;44932;-78
2023/08/07 01:08:32;;;;;;;;;2.00;2.00;;;;;18.47;71.95;101235.53;6216397;22;44849;-78
2023/08/07 01:11:46;;;;;;;;;4.00;2.00;;;;;18.70;71.98;101237.94;6213697;22;47218;-78
2023/08/07 01:14:20;;;;;;;;;1.00;1.00;;;;;18.68;72.46;101236.19;6215981;22;45074;-80
2023/08/07 01:16:52;;;;;;;;;3.00;1.00;;;;;18.56;72.50;101229.13;6224906;22;45187;-84
2023/08/07 01:19:27;;;;;;;;;1.67;1.67;;;;;18.68;72.53;101237.06;6222569;22;44836;-84
2023/08/07 01:22:14;;;;;;;;;2.00;2.00;;;;;18.69;72.51;101238.88;6225631;22;45260;-84
2023/08/07 01:24:41;;;;;;;;;2.67;2.33;;;;;18.49;73.09;101228.31;6222296;22;44816;-84
2023/08/07 01:27:18;;;;;;;;;2.00;1.00;;;;;18.65;73.07;101229.03;6224275;22;44813;-83
2023/08/07 01:30:03;;;;;;;;;2.00;2.00;;;;;18.62;73.43;101231.75;6221140;22;45359;-80
2023/08/07 01:33:06;;;;;;;;;1.33;1.33;;;;;18.63;72.94;101233.56;6225345;22;47195;-80
2023/08/07 01:35:43;;;;;;;;;2.33;2.00;;;;;18.58;73.37;101225.53;6231576;22;44821;-81
2023/08/07 01:38:09;;;;;;;;;4.00;1.00;;;;;18.41;73.79;101226.63;6224852;22;44761;-78
2023/08/07 01:40:38;;;;;;;;;1.00;1.00;;;;;18.50;73.76;101226.50;6215445;22;45450;-79
2023/08/07 01:43:06;;;;;;;;;3.00;2.67;;;;;18.38;74.14;101230.25;6218238;22;47065;-80
2023/08/07 01:45:31;;;;;;;;;2.00;2.00;;;;;18.32;74.14;101232.97;6217806;22;45289;-80
2023/08/07 01:47:57;;;;;;;;;1.33;1.33;;;;;18.31;74.37;101234.78;6233676;22;45210;-81
2023/08/07 01:50:24;;;;;;;;;3.67;1.67;;;;;18.35;74.77;101235.66;6234638;22;44750;-80
2023/08/07 01:53:36;;;;;;;;;2.00;2.00;;;;;18.52;74.88;101236.38;6224479;22;46790;-83
2023/08/07 01:56:01;;;;;;;;;2.33;2.33;;;;;18.28;75.24;101231.22;6219978;22;45000;-83
2023/08/07 01:58:27;;;;;;;;;1.00;1.00;;;;;18.33;75.27;101232.09;6224560;22;44839;-81
2023/08/07 02:00:53;;;;;;;;;1.00;1.00;;;;;18.37;75.36;101236.53;6222472;22;44887;-84
2023/08/07 02:03:20;;;;;;;;;3.00;3.00;;;;;18.41;75.31;101232.88;6222293;22;46918;-83
2023/08/07 02:05:46;;;;;;;;;2.00;2.00;;;;;18.27;75.96;101234.84;6221077;22;45249;-82
2023/08/07 02:08:12;;;;;;;;;1.00;1.00;;;;;18.24;75.93;101234.84;6221783;22;44748;-82
2023/08/07 02:10:37;;;;;;;;;2.00;2.00;;;;;18.22;76.04;101232.19;6223075;22;44734;-84
2023/08/07 02:13:03;;;;;;;;;2.00;2.00;;;;;18.27;76.03;101227.63;6222186;22;47034;-83
2023/08/07 02:15:29;;;;;;;;;2.00;2.00;;;;;18.22;75.95;101233.97;6222524;22;45110;-83
2023/08/07 02:18:35;;;;;;;;;4.00;2.67;;;;;18.44;76.24;101235.56;6222673;22;44787;-83
2023/08/07 02:21:01;;;;;;;;;2.33;2.33;;;;;18.15;77.04;101236.72;6221595;22;44819;-83
2023/08/07 02:23:28;;;;;;;;;1.67;1.00;;;;;18.11;77.19;101231.38;6223116;22;46671;-84
2023/08/07 02:25:53;;;;;;;;;2.00;2.00;;;;;18.07;77.39;101233.22;6222091;22;44874;-83
2023/08/07 02:28:18;;;;;;;;;2.50;2.50;;;;;18.08;77.31;101228.75;6215991;22;45116;-79
2023/08/07 02:30:51;;;;;;;;;3.00;3.00;;;;;18.28;77.51;101231.22;6211193;22;44847;-79
2023/08/07 02:33:16;;;;;;;;;2.33;2.00;;;;;18.09;77.77;101230.50;6213973;22;47156;-79
2023/08/07 02:35:42;;;;;;;;;1.00;1.00;;;;;18.08;77.58;101235.00;6215864;22;45193;-78
2023/08/07 02:38:07;;;;;;;;;4.00;2.33;;;;;18.03;77.83;101236.84;6215315;22;45420;-79
2023/08/07 02:40:32;;;;;;;;;2.00;2.00;;;;;17.99;78.05;101229.69;6213096;22;44831;-79
2023/08/07 02:42:58;;;;;;;;;1.00;1.00;;;;;18.00;78.42;101231.50;6214317;22;47004;-79
2023/08/07 02:45:23;;;;;;;;;3.00;3.00;;;;;17.96;78.14;101236.00;6217990;22;44795;-78
2023/08/07 02:47:48;;;;;;;;;2.00;2.00;;;;;18.00;78.42;101231.50;6216196;22;44709;-79
2023/08/07 02:50:17;;;;;;;;;0.67;0.67;;;;;18.01;78.52;101229.69;6217687;22;44743;-79
2023/08/07 02:52:49;;;;;;;;;1.33;1.00;;;;;18.02;78.34;101229.69;6216825;22;45681;-78
2023/08/07 02:55:14;;;;;;;;;2.33;2.33;;;;;17.98;78.37;101233.31;6217685;22;44856;-79
2023/08/07 02:57:39;;;;;;;;;2.00;2.00;;;;;18.01;78.49;101235.97;6215309;22;44837;-78
2023/08/07 03:00:06;;;;;;;;;2.00;1.00;;;;;18.00;78.42;101231.50;6215215;22;44863;-79
2023/08/07 03:02:31;;;;;;;;;2.00;2.00;;;;;17.91;78.73;101231.56;6215654;22;45497;-80
2023/08/07 03:04:56;;;;;;;;;4.00;3.00;;;;;17.91;78.58;101242.31;6216592;22;44810;-80
2023/08/07 03:07:23;;;;;;;;;3.00;2.00;;;;;18.00;79.22;101234.19;6220365;22;44811;-80
2023/08/07 03:09:48;;;;;;;;;4.00;4.00;;;;;17.89;78.85;101244.13;6230235;22;45285;-81
2023/08/07 03:12:13;;;;;;;;;2.33;2.33;;;;;17.85;79.45;101237.00;6230802;22;45391;-80
2023/08/07 03:14:39;;;;;;;;;3.33;3.00;;;;;17.83;79.47;101238.78;6229948;22;44728;-80
2023/08/07 03:17:04;;;;;;;;;1.33;1.33;;;;;17.83;79.79;101244.16;6224131;22;44703;-79
2023/08/07 03:19:30;;;;;;;;;2.00;2.00;;;;;17.78;79.83;101231.63;6216110;22;44845;-85
2023/08/07 03:21:55;;;;;;;;;3.00;2.75;;;;;17.79;80.10;101240.59;6219516;22;46944;-85
2023/08/07 03:24:21;;;;;;;;;2.00;2.00;;;;;17.77;79.93;101237.94;6221677;22;44708;-85
2023/08/07 03:26:47;;;;;;;;;2.00;2.00;;;;;17.82;79.96;101243.28;6223246;22;44670;-84
2023/08/07 03:29:12;;;;;;;;;3.67;3.00;;;;;17.76;80.12;101238.81;6216460;22;44826;-80
2023/08/07 03:31:38;;;;;;;;;2.67;1.00;;;;;17.77;80.36;101248.69;6211145;22;47337;-80
2023/08/07 03:34:03;;;;;;;;;3.00;1.00;;;;;17.74;80.36;101245.13;6216818;22;45273;-80
2023/08/07 03:36:32;;;;;;;;;2.67;2.00;;;;;17.73;80.38;101254.09;6217641;22;45391;-81
2023/08/07 03:38:57;;;;;;;;;1.00;1.00;;;;;17.69;80.58;101263.97;6216298;22;45431;-81
2023/08/07 03:41:22;;;;;;;;;1.00;1.00;;;;;17.67;80.70;101262.19;6212916;22;47040;-80
2023/08/07 03:43:48;;;;;;;;;2.00;2.00;;;;;17.66;81.00;101258.63;6213755;22;45261;-80
2023/08/07 03:46:13;;;;;;;;;3.00;3.00;;;;;17.69;80.93;101258.59;6215115;22;44910;-80
2023/08/07 03:48:38;;;;;;;;;3.00;2.00;;;;;17.69;81.21;101247.81;6214802;22;45324;-80
2023/08/07 03:51:07;;;;;;;;;2.33;2.33;;;;;17.74;81.19;101250.50;6240032;22;47128;-79
2023/08/07 03:53:33;;;;;;;;;4.00;4.00;;;;;17.68;81.48;101262.19;6215778;22;44888;-80
2023/08/07 03:55:59;;;;;;;;;5.00;3.67;;;;;17.62;81.89;101253.28;6215467;22;44840;-80
2023/08/07 03:58:24;;;;;;;;;4.00;3.00;;;;;17.65;81.93;101251.44;6214099;22;44813;-80
2023/08/07 04:00:51;;;;;;;;;3.00;2.00;;;;;17.76;81.80;101254.09;6215499;22;44920;-81
2023/08/07 04:03:18;;;;;;;;;4.00;3.00;;;;;17.65;82.05;101256.81;6216862;22;45331;-81
2023/08/07 04:05:47;;;;;;;;;4.67;4.67;;;;;17.59;82.15;101247.03;6215658;22;44859;-80
2023/08/07 04:08:12;;;;;;;;;3.00;2.00;;;;;17.60;82.18;101261.34;6217110;22;45359;-81
2023/08/07 04:10:37;;;;;;;;;4.00;2.67;;;;;17.65;82.37;101267.59;6213120;22;45990;-80
2023/08/07 04:13:03;;;;;;;;;2.67;2.67;;;;;17.60;82.59;101258.66;6216007;22;44888;-80
2023/08/07 04:15:31;;;;;;;;;1.67;1.67;;;;;17.63;82.49;101257.75;6214561;22;45053;-80
2023/08/07 04:17:57;;;;;;;;;2.67;2.00;;;;;17.53;82.93;101252.44;6213635;22;45239;-81
2023/08/07 04:20:28;;;;;;;;;3.00;3.00;;;;;17.74;82.45;101272.03;6216905;22;45284;-80
2023/08/07 04:22:54;;;;;;;;;2.00;2.00;;;;;17.50;83.71;101265.00;6217876;22;44843;-81
2023/08/07 04:25:19;;;;;;;;;2.00;2.00;;;;;17.49;83.57;101265.91;6218112;22;45391;-81
2023/08/07 04:27:44;;;;;;;;;2.67;2.67;;;;;17.68;82.95;101266.69;6216582;22;45289;-80
2023/08/07 04:30:10;;;;;;;;;3.67;3.67;;;;;17.56;83.78;101246.16;6217421;22;46250;-80
2023/08/07 04:32:36;;;;;;;;;3.33;2.33;;;;;17.53;84.02;101256.91;6219368;22;44783;-80
2023/08/07 04:35:01;;;;;;;;;2.00;2.00;;;;;17.51;84.08;101259.63;6242038;22;45393;-80
2023/08/07 04:37:26;;;;;;;;;3.33;2.00;;;;;17.55;84.21;101255.09;6242505;22;45171;-80
2023/08/07 04:39:54;;;;;;;;;1.33;1.33;;;;;17.54;84.05;101264.09;6216051;22;47096;-80
2023/08/07 04:42:19;;;;;;;;;2.67;2.67;;;;;17.50;84.15;101259.63;6216818;22;45173;-80
2023/08/07 04:44:48;;;;;;;;;3.33;3.00;;;;;17.49;84.50;101256.06;6214367;22;44819;-80
2023/08/07 04:47:13;;;;;;;;;3.00;2.67;;;;;17.53;84.54;101271.28;6214516;22;45318;-80
2023/08/07 04:49:38;;;;;;;;;2.00;2.00;;;;;17.55;84.93;101271.25;6218281;22;45437;-80
2023/08/07 04:52:04;;;;;;;;;3.00;3.00;;;;;17.57;85.19;101267.66;6216116;22;44780;-80
2023/08/07 04:54:32;;;;;;;;;5.67;4.00;;;;;17.55;85.30;101266.78;6217057;22;45533;-81
2023/08/07 04:56:57;;;;;;;;;5.33;4.00;;;;;17.54;85.32;101264.09;6218352;22;45366;-80
2023/08/07 04:59:23;;;;;;;;;5.67;3.00;;;;;17.63;85.63;101266.69;6219407;22;45264;-80
2023/08/07 05:01:48;;;;;;;;;4.00;3.67;;;;;17.70;85.46;101281.91;6216809;22;45386;-80
2023/08/07 05:04:14;;;;;;;;;3.33;3.33;;;;;17.76;85.79;101283.66;6217484;22;44734;-80
2023/08/07 05:06:42;;;;;;;;;4.00;4.00;;;;;18.01;85.70;101281.72;6216474;22;44874;-80
2023/08/07 05:09:07;;;;;;;;;5.67;4.00;;;;;17.93;85.38;101278.19;6218892;22;45492;-81
2023/08/07 05:11:33;;;;;;;;;4.00;4.00;;;;;18.00;85.68;101274.56;6218666;22;44732;-80
2023/08/07 05:13:59;;;;;;;;;3.33;3.33;;;;;18.04;85.33;101279.00;6216915;22;45324;-80
2023/08/07 05:16:26;;;;;;;;;5.00;4.67;;;;;18.24;85.58;101276.16;6215339;22;45340;-80
2023/08/07 05:18:51;;;;;;;;;6.67;5.33;;;;;18.16;84.86;101296.88;6217332;22;46868;-81
2023/08/07 05:21:18;;;;;;;;;4.00;4.00;;;;;18.29;85.46;101285.06;6218720;22;45284;-80
2023/08/07 05:23:43;;;;;;;;;5.67;5.67;;;;;18.14;84.76;101279.84;6217579;22;44754;-81
2023/08/07 05:26:09;;;;;;;;;10.00;6.67;;;;;18.17;85.27;101279.78;6243222;22;45138;-80
2023/08/07 05:31:56;;;;;;;;;6.00;6.00;;;;;18.30;84.91;101281.47;6216451;22;44930;-81
2023/08/07 05:34:22;;;;;;;;;4.00;4.00;;;;;18.37;85.24;101279.63;6218363;22;45266;-80
2023/08/07 05:36:47;;;;;;;;;6.67;6.67;;;;;18.45;85.03;101285.81;6221016;22;44925;-80
2023/08/07 05:39:13;;;;;;;;;7.67;4.00;;;;;18.53;85.33;101294.72;6218581;22;45336;-80
2023/08/07 05:41:39;;;;;;;;;5.00;5.00;;;;;18.59;85.16;101296.47;6218166;22;44717;-81
2023/08/07 05:44:05;;;;;;;;;7.33;5.00;;;;;18.66;85.01;101299.97;6242041;22;45160;-81
2023/08/07 05:46:31;;;;;;;;;8.00;7.33;;;;;18.72;84.41;101290.03;6219876;22;45229;-81
2023/08/07 05:48:56;;;;;;;;;9.33;8.67;;;;;18.71;84.51;101287.34;6216994;22;46519;-81
2023/08/07 05:51:22;;;;;;;;;5.00;5.00;;;;;18.80;84.42;101300.75;6216248;22;44776;-81
2023/08/07 05:53:48;;;;;;;;;7.00;6.00;;;;;18.82;84.62;101295.34;6217456;22;44852;-81
2023/08/07 05:56:13;;;;;;;;;6.33;6.33;;;;;18.82;84.31;101282.75;6216804;22;45371;-81
2023/08/07 05:58:39;;;;;;;;;7.33;6.33;;;;;18.99;83.87;101291.56;6215375;22;47009;-81
2023/08/07 06:01:05;;;;;;;;;8.00;7.33;;;;;19.07;83.68;101298.66;6216280;22;44985;-81
2023/08/07 06:03:31;;;;;;;;;7.67;7.00;;;;;19.03;83.88;101296.88;6218900;22;44751;-81
2023/08/07 06:05:57;;;;;;;;;7.00;7.00;;;;;19.09;83.31;101304.94;6219645;22;45429;-81
2023/08/07 06:08:23;;;;;;;;;11.00;7.67;;;;;19.10;83.42;101299.50;6214319;22;45153;-81
2023/08/07 06:10:48;;;;;;;;;8.33;6.67;;;;;19.06;83.15;101297.75;6216267;22;44802;-81
2023/08/07 06:13:14;;;;;;;;;7.00;7.00;;;;;19.08;83.31;101300.44;6214812;22;45038;-81
2023/08/07 06:15:42;;;;;;;;;7.33;7.33;;;;;19.14;82.85;101293.16;6218056;22;44820;-81
2023/08/07 06:18:07;;;;;;;;;9.33;8.33;;;;;19.16;83.33;101298.53;6218528;22;45362;-81
2023/08/07 06:20:35;;;;;;;;;8.00;8.00;;;;;19.31;83.19;101298.34;6217640;22;44866;-81
2023/08/07 06:23:00;;;;;;;;;9.33;8.00;;;;;19.27;83.17;101302.00;6243483;22;44908;-81
2023/08/07 06:25:31;;;;;;;;;9.67;8.67;;;;;19.57;82.57;101305.16;6218951;22;44870;-81
2023/08/07 06:31:12;;;;;;;;;11.00;9.33;;;;;19.77;81.91;101313.94;6211362;22;44743;-80
2023/08/07 06:33:52;;;;;;;;;11.67;9.33;;;;;19.83;81.75;101307.53;6218310;22;44817;-81
2023/08/07 06:36:18;;;;;;;;;8.33;8.00;;;;;19.63;81.58;101305.09;6218654;22;44728;-81
2023/08/07 06:38:43;;;;;;;;;8.67;6.67;;;;;19.66;81.24;101305.06;6219630;22;45387;-80
2023/08/07 06:41:12;;;;;;;;;9.33;6.67;;;;;19.71;81.05;101319.41;6220108;22;44751;-80
2023/08/07 06:43:43;;;;;;;;;9.67;7.67;;;;;19.70;81.44;101314.88;6217965;22;45363;-80
2023/08/07 06:46:10;;;;;;;;;11.33;8.00;;;;;19.82;81.32;101326.47;6217200;22;44919;-80
2023/08/07 06:48:35;;;;;;;;;9.33;7.33;;;;;19.80;81.42;101325.59;6216533;22;45397;-80
2023/08/07 06:51:03;;;;;;;;;6.67;6.33;;;;;20.06;81.45;101328.78;6219634;22;45146;-80
2023/08/07 06:53:29;;;;;;;;;11.33;8.33;;;;;20.08;80.97;101335.06;6217785;22;44844;-80
2023/08/07 06:56:12;;;;;;;;;12.00;10.00;;;;;20.49;79.89;101328.06;6217830;22;44900;-81
2023/08/07 06:58:51;;;;;;;;;6.00;6.00;;;;;20.70;79.64;101342.13;6216873;22;47144;-81
2023/08/07 07:01:16;;;;;;;;;9.33;8.00;;;;;20.60;79.14;101340.50;6217827;22;45398;-81
2023/08/07 07:03:46;;;;;;;;;8.00;8.00;;;;;20.68;78.82;101341.25;6219119;22;44997;-81
2023/08/07 07:06:20;;;;;;;;;11.33;11.33;;;;;20.98;78.12;101346.09;6217807;22;45322;-80
2023/08/07 07:08:49;;;;;;;;;11.67;10.33;;;;;21.01;78.09;101336.16;6215487;22;45311;-80
2023/08/07 07:11:15;;;;;;;;;13.25;10.25;;;;;20.93;77.59;101341.72;6215340;22;44804;-81
2023/08/07 07:13:41;;;;;;;;;12.00;8.33;;;;;21.04;77.04;101346.91;6217720;22;44878;-81
2023/08/07 07:16:12;;;;;;;;;6.67;6.67;;;;;21.29;76.60;101356.31;6215174;22;44785;-81
2023/08/07 07:18:44;;;;;;;;;11.00;10.00;;;;;21.13;76.42;101361.13;6214254;22;46089;-80
2023/08/07 07:21:11;;;;;;;;;10.33;9.00;;;;;21.14;76.28;101348.50;6216305;22;45260;-80
2023/08/07 07:23:36;;;;;;;;;11.00;10.00;;;;;21.18;76.66;101352.94;6217050;22;44821;-81
2023/08/07 07:26:02;;;;;;;;;8.67;8.33;;;;;21.26;76.15;101356.38;6214023;22;45395;-81
2023/08/07 07:28:27;;;;;;;;;8.00;8.00;;;;;21.39;76.24;101359.72;6218615;22;46847;-80
2023/08/07 07:30:54;;;;;;;;;12.67;12.67;;;;;21.45;75.37;101356.00;6217877;22;45016;-81
2023/08/07 07:33:20;;;;;;;;;12.33;10.00;;;;;21.46;76.01;101357.81;6219020;22;45355;-80
2023/08/07 07:35:45;;;;;;;;;10.00;8.33;;;;;21.40;74.79;101353.38;6217903;22;44776;-81
2023/08/07 07:38:23;;;;;;;;;9.33;9.33;;;;;21.50;75.05;101355.00;6216732;22;47245;-81
2023/08/07 07:40:48;;;;;;;;;9.67;9.67;;;;;21.31;74.97;101354.47;6216993;22;44748;-81
2023/08/07 07:43:14;;;;;;;;;11.00;11.00;;;;;21.45;74.74;101356.00;6217978;22;45410;-81
2023/08/07 07:45:45;;;;;;;;;11.00;10.00;;;;;21.61;74.13;101359.28;6218558;22;45201;-80
2023/08/07 07:48:18;;;;;;;;;8.33;7.33;;;;;21.74;74.39;101358.09;6217836;22;46928;-81
2023/08/07 07:50:44;;;;;;;;;8.00;8.00;;;;;21.94;74.60;101352.22;6219727;22;44962;-82
2023/08/07 07:53:09;;;;;;;;;8.67;8.00;;;;;22.04;72.92;101361.91;6217247;22;45348;-81
2023/08/07 07:55:35;;;;;;;;;7.33;7.00;;;;;22.12;73.25;101354.50;6217903;22;45018;-80
2023/08/07 07:58:01;;;;;;;;;7.33;7.00;;;;;22.30;73.16;101357.69;6219038;22;47183;-81
2023/08/07 08:00:26;;;;;;;;;8.00;7.67;;;;;22.36;72.18;101368.41;6217759;22;44895;-80
2023/08/07 08:03:04;;;;;;;;;12.00;10.00;;;;;22.46;71.11;101372.69;6216601;22;44878;-82
2023/08/07 08:09:38;;;;;;;;;7.33;7.00;;;;;23.26;68.52;101372.38;6219632;22;44976;-81
2023/08/07 08:12:13;;;;;;;;;9.00;7.00;;;;;23.14;69.26;101368.16;6219686;22;45159;-80
2023/08/07 08:15:00;;;;;;;;;8.00;8.00;;;;;22.98;69.66;101370.38;6219423;22;44801;-80
2023/08/07 08:18:08;;;;;;;;;6.33;6.33;;;;;23.17;69.19;101371.69;6222618;22;44793;-81
2023/08/07 08:20:34;;;;;;;;;6.00;6.00;;;;;22.87;68.32;101346.28;6218710;22;45075;-81
2023/08/07 08:23:02;;;;;;;;;9.00;7.67;;;;;23.21;68.58;101380.66;6220334;22;45300;-82
2023/08/07 08:25:28;;;;;;;;;8.67;8.00;;;;;23.11;67.78;101352.88;6217125;22;45320;-81
2023/08/07 08:28:02;;;;;;;;;7.33;6.33;;;;;23.34;68.38;101341.34;6192934;22;44836;-81
2023/08/07 08:30:28;;;;;;;;;7.00;7.00;;;;;23.24;66.64;101356.13;6189067;22;47057;-82
2023/08/07 08:33:01;;;;;;;;;5.25;5.25;;;;;23.25;65.20;101382.34;6217477;22;44874;-81
2023/08/07 08:35:39;;;;;;;;;8.00;6.00;;;;;22.75;65.98;101361.06;6192262;22;44799;-81
2023/08/07 08:38:04;;;;;;;;;5.00;4.25;;;;;22.49;66.27;101353.59;6217856;22;44989;-82
2023/08/07 08:40:35;;;;;;;;;7.00;6.00;;;;;22.77;66.82;101348.34;6218180;22;45206;-82
2023/08/07 08:43:22;;;;;;;;;5.00;5.00;;;;;23.41;66.43;101376.44;6169475;22;45226;-81
2023/08/07 08:48:46;;;;;;;;;7.67;7.33;;;;;23.44;66.04;101371.81;6221965;22;44794;-82
2023/08/07 08:51:17;;;;;;;;;6.33;6.33;;;;;23.20;66.17;101357.16;6198381;22;47012;-81
2023/08/07 08:54:01;;;;;;;;;6.67;6.67;;;;;23.39;66.28;101340.31;6217838;22;45474;-81
2023/08/07 08:56:49;;;;;;;;;7.00;7.00;;;;;23.69;66.31;101354.78;6221010;22;45476;-81
2023/08/07 08:59:25;;;;;;;;;7.00;6.33;;;;;24.11;65.74;101335.38;6219800;22;45323;-81
2023/08/07 09:01:54;;;;;;;;;7.33;6.00;;;;;24.37;62.06;101375.31;6218785;22;47105;-81
2023/08/07 09:04:20;;;;;;;;;6.00;6.00;;;;;24.12;63.33;101367.06;6217966;22;45167;-81
2023/08/07 09:06:47;;;;;;;;;8.00;7.67;;;;;24.06;63.79;101368.16;6222020;22;44653;-81
2023/08/07 09:09:14;;;;;;;;;8.00;7.50;;;;;24.05;62.86;101368.19;6218409;22;44953;-81
2023/08/07 09:11:41;;;;;;;;;8.33;6.00;;;;;23.86;62.77;101373.34;6219972;22;45828;-81
2023/08/07 09:14:11;;;;;;;;;8.00;5.75;;;;;23.60;63.39;101355.97;6219627;22;45374;-81
2023/08/07 09:17:17;;;;;;;;;8.00;6.67;;;;;24.02;62.29;101382.78;6221681;22;45264;-82
2023/08/07 09:19:51;;;;;;;;;6.50;6.00;;;;;23.67;62.70;101357.59;6219090;22;44895;-81
2023/08/07 09:22:17;;;;;;;;;5.00;5.00;;;;;23.67;62.62;101378.38;6216754;22;46943;-81
2023/08/07 09:24:46;;;;;;;;;6.67;6.67;;;;;24.04;61.84;101390.91;6220363;22;44790;-81
2023/08/07 09:27:19;;;;;;;;;6.00;6.00;;;;;24.20;62.06;101393.97;6244811;22;44815;-81
2023/08/07 09:29:49;;;;;;;;;6.00;6.00;;;;;24.31;61.46;101392.69;6220657;22;45343;-81
2023/08/07 09:32:18;;;;;;;;;8.33;6.00;;;;;24.22;60.25;101354.97;6219221;22;45223;-81
2023/08/07 09:35:10;;;;;;;;;5.00;5.00;;;;;23.98;59.09;101359.38;6220797;22;44767;-82
2023/08/07 09:37:36;;;;;;;;;7.67;6.00;;;;;23.99;60.78;101393.72;6220538;22;44805;-81
2023/08/07 09:40:47;;;;;;;;;4.67;4.67;;;;;24.31;60.24;101391.81;6194256;22;45487;-81
2023/08/07 09:43:22;;;;;;;;;6.00;6.00;;;;;23.91;59.16;101349.63;6224145;22;45306;-81
2023/08/07 09:45:50;;;;;;;;;6.00;6.00;;;;;23.72;59.62;101357.44;6223288;22;45316;-81
2023/08/07 09:48:27;;;;;;;;;4.67;4.00;;;;;24.01;59.57;101388.25;6219051;22;45265;-81
2023/08/07 09:51:36;;;;;;;;;5.33;4.33;;;;;23.98;57.40;101378.38;6219462;22;44889;-81
2023/08/07 09:54:13;;;;;;;;;3.67;3.67;;;;;23.82;58.26;101382.53;6221392;22;45388;-81
2023/08/07 09:56:47;;;;;;;;;3.67;3.67;;;;;23.71;58.27;101369.22;6216477;22;44773;-79
2023/08/07 09:59:13;;;;;;;;;4.33;4.33;;;;;23.50;56.49;101376.19;6218992;22;44813;-80
2023/08/07 10:01:44;;;;;;;;;5.75;5.00;;;;;23.75;58.59;101379.03;6220186;22;44709;-81
2023/08/07 10:10:54;;;;;;;;;3.00;3.00;;;;;23.85;56.85;101376.97;6220247;22;45296;-81
2023/08/07 10:13:27;;;;;;;;;5.50;4.00;;;;;23.83;55.18;101367.97;6246799;22;44998;-81
2023/08/07 10:15:52;;;;;;;;;3.25;3.25;;;;;23.72;55.17;101363.75;6222697;22;47216;-80
2023/08/07 10:18:18;;;;;;;;;4.75;3.50;;;;;23.68;56.73;101347.59;6220225;22;45833;-80
2023/08/07 10:21:36;;;;;;;;;5.25;5.25;;;;;24.08;57.05;101349.97;6220881;22;45138;-81
2023/08/07 10:24:04;;;;;;;;;4.25;4.25;;;;;24.01;55.65;101361.09;6217344;22;44985;-81
2023/08/07 10:26:33;;;;;;;;;2.75;2.75;;;;;24.06;56.20;101349.13;6218824;22;47310;-80
2023/08/07 10:29:04;;;;;;;;;3.75;3.75;;;;;24.15;53.83;101353.38;6222210;22;45280;-81
2023/08/07 10:31:33;;;;;;;;;4.00;4.00;;;;;24.14;55.69;101357.94;6218618;22;44795;-81
2023/08/07 10:33:59;;;;;;;;;4.67;4.67;;;;;24.16;54.81;101349.72;6218061;22;45109;-81
2023/08/07 10:36:35;;;;;;;;;4.25;3.00;;;;;24.29;52.38;101361.97;6194216;22;47461;-81
2023/08/07 10:39:11;;;;;;;;;2.50;2.50;;;;;24.19;52.30;101343.28;6194774;22;44804;-80
2023/08/07 10:41:55;;;;;;;;;3.00;3.00;;;;;24.04;51.23;101358.28;6220310;22;44773;-80
2023/08/07 10:44:26;;;;;;;;;3.00;3.00;;;;;23.76;52.97;101331.94;6218559;22;45335;-80
2023/08/07 10:47:01;;;;;;;;;3.00;3.00;;;;;24.04;51.76;101361.00;6216604;22;46940;-81
2023/08/07 10:49:42;;;;;;;;;3.00;2.67;;;;;23.92;49.26;101329.69;6217182;22;44842;-80
2023/08/07 10:52:14;;;;;;;;;2.00;2.00;;;;;23.72;51.36;101317.56;6218588;22;45561;-80
2023/08/07 10:54:44;;;;;;;;;3.00;3.00;;;;;23.71;51.23;101315.81;6220254;22;44701;-81
2023/08/07 10:57:16;;;;;;;;;5.25;4.75;;;;;23.94;51.63;101322.38;6219637;22;45275;-80
2023/08/07 10:59:56;;;;;;;;;5.50;5.50;;;;;24.28;51.62;101340.25;6219442;22;44874;-81
2023/08/07 11:02:42;;;;;;;;;3.25;3.00;;;;;24.35;50.35;101344.56;6223211;22;44834;-81
2023/08/07 11:11:42;;;;;;;;;4.25;4.25;;;;;24.53;50.75;101341.25;6139630;23;44965;-81
2023/08/07 11:14:28;;;;;;;;;2.00;2.00;;;;;24.79;50.22;101305.91;6105487;23;44878;-80
2023/08/07 11:16:54;;;;;;;;;4.00;4.00;;;;;24.72;50.16;101314.31;6131448;23;45316;-79
2023/08/07 11:19:25;;;;;;;;;4.00;4.00;;;;;24.82;50.30;101301.22;6130155;23;45236;-80
2023/08/07 11:21:57;;;;;;;;;3.25;3.25;;;;;25.19;50.07;101323.47;6131707;23;44765;-80
2023/08/07 11:24:27;;;;;;;;;3.00;3.00;;;;;25.17;47.59;101309.94;6108479;23;44800;-81
2023/08/07 11:26:55;;;;;;;;;6.67;5.00;;;;;24.95;49.84;101298.97;6131653;23;45439;-82
2023/08/07 11:29:22;;;;;;;;;3.00;3.00;;;;;24.92;47.38;101305.38;6131758;23;46807;-84
2023/08/07 11:32:12;;;;;;;;;;;;;;;;;;;;;
2023/08/07 11:34:40;;;;;;;;;4.00;4.00;;;;;25.04;48.95;101311.34;6106406;23;68164;-82
2023/08/07 11:37:56;;;;;;;;;3.50;3.50;;;;;25.23;49.03;101290.69;6079826;23;45151;-80
2023/08/07 11:40:26;;;;;;;;;5.00;5.00;;;;;25.31;47.79;101326.66;6075345;23;47104;-81
2023/08/07 11:43:17;;;;;;;;;5.00;5.00;;;;;25.42;46.96;101328.09;6059595;23;44822;-80
2023/08/07 11:45:49;;;;;;;;;6.75;5.00;;;;;25.21;48.33;101307.97;6178511;23;44790;-80
2023/08/07 11:48:15;;;;;;;;;3.50;3.50;;;;;25.00;49.18;101299.66;6174405;23;44801;-80
2023/08/07 11:50:42;;;;;;;;;5.00;5.00;;;;;25.06;48.91;101320.34;6197771;23;45465;-80
2023/08/07 11:53:13;;;;;;;;;7.00;6.00;;;;;24.93;49.34;101299.00;6201637;22;44762;-80
2023/08/07 11:55:52;;;;;;;;;5.25;5.25;;;;;24.90;49.82;101277.34;6197190;23;44736;-78
2023/08/07 11:58:21;;;;;;;;;6.25;6.25;;;;;24.83;50.31;101286.69;6201286;23;44782;-78
2023/08/07 12:00:52;;;;;;;;;7.00;5.75;;;;;25.19;51.48;101294.44;6197715;23;46932;-79
2023/08/07 12:03:28;;;;;;;;;6.00;6.00;;;;;25.17;50.15;101260.94;6197956;23;44717;-80
2023/08/07 12:05:56;;;;;;;;;4.50;4.50;;;;;25.48;50.52;101284.28;6192515;23;45285;-80